sensor_id;sensor_type;location;lat;lon;timestamp;temperature;humidity
27314;DHT22;14800;48.174;9.798;2023-08-06T00:00:06;17.60;80.20
27314;DHT22;14800;48.174;9.798;2023-08-06T00:02:32;17.60;80.10
27314;DHT22;14800;48.174;9.798;2023-08-06T00:04:57;17.60;80.00
27314;DHT22;14800;48.174;9.798;2023-08-06T00:07:23;17.60;80.00
27314;DHT22;14800;48.174;9.798;2023-08-06T00:09:49;17.60;80.00
27314;DHT22;14800;48.174;9.798;2023-08-06T00:12:14;17.50;80.00
27314;DHT22;14800;48.174;9.798;2023-08-06T00:14:40;17.50;80.10
27314;DHT22;14800;48.174;9.798;2023-08-06T00:17:05;17.50;80.00
27314;DHT22;14800;48.174;9.798;2023-08-06T00:19:32;17.50;79.90
27314;DHT22;14800;48.174;9.798;2023-08-06T00:21:57;17.50;80.00
27314;DHT22;14800;48.174;9.798;2023-08-06T00:24:23;17.50;80.00
27314;DHT22;14800;48.174;9.798;2023-08-06T00:26:48;17.50;80.30
27314;DHT22;14800;48.174;9.798;2023-08-06T00:29:14;17.50;80.40
27314;DHT22;14800;48.174;9.798;2023-08-06T00:31:40;17.40;80.40
27314;DHT22;14800;48.174;9.798;2023-08-06T00:34:05;17.40;80.50
27314;DHT22;14800;48.174;9.798;2023-08-06T00:36:31;17.40;80.80
27314;DHT22;14800;48.174;9.798;2023-08-06T00:38:57;17.30;80.80
27314;DHT22;14800;48.174;9.798;2023-08-06T00:41:22;17.30;81.20
27314;DHT22;14800;48.174;9.798;2023-08-06T00:43:48;17.20;81.30
27314;DHT22;14800;48.174;9.798;2023-08-06T00:46:13;17.20;82.30
27314;DHT22;14800;48.174;9.798;2023-08-06T00:48:40;17.20;81.60
27314;DHT22;14800;48.174;9.798;2023-08-06T00:51:08;17.10;81.80
27314;DHT22;14800;48.174;9.798;2023-08-06T00:53:34;17.10;82.10
27314;DHT22;14800;48.174;9.798;2023-08-06T00:56:00;17.10;82.30
27314;DHT22;14800;48.174;9.798;2023-08-06T00:58:26;17.00;82.40
27314;DHT22;14800;48.174;9.798;2023-08-06T01:00:51;17.00;82.40
27314;DHT22;14800;48.174;9.798;2023-08-06T01:03:17;17.00;82.50
27314;DHT22;14800;48.174;9.798;2023-08-06T01:05:42;17.00;82.60
27314;DHT22;14800;48.174;9.798;2023-08-06T01:13:48;16.90;82.80
27314;DHT22;14800;48.174;9.798;2023-08-06T01:16:18;16.90;82.80
27314;DHT22;14800;48.174;9.798;2023-08-06T01:18:47;16.90;83.00
27314;DHT22;14800;48.174;9.798;2023-08-06T01:21:15;16.80;83.30
27314;DHT22;14800;48.174;9.798;2023-08-06T01:23:42;16.80;83.40
27314;DHT22;14800;48.174;9.798;2023-08-06T01:28:48;16.70;85.10
27314;DHT22;14800;48.174;9.798;2023-08-06T01:31:32;16.70;84.20
27314;DHT22;14800;48.174;9.798;2023-08-06T01:34:01;16.60;84.50
27314;DHT22;14800;48.174;9.798;2023-08-06T01:36:28;16.70;84.20
27314;DHT22;14800;48.174;9.798;2023-08-06T01:38:54;16.60;84.20
27314;DHT22;14800;48.174;9.798;2023-08-06T01:41:20;16.60;84.30
27314;DHT22;14800;48.174;9.798;2023-08-06T01:43:45;16.60;84.30
27314;DHT22;14800;48.174;9.798;2023-08-06T01:46:11;16.60;84.50
27314;DHT22;14800;48.174;9.798;2023-08-06T01:48:37;16.60;85.50
27314;DHT22;14800;48.174;9.798;2023-08-06T01:51:05;16.60;84.60
27314;DHT22;14800;48.174;9.798;2023-08-06T01:53:31;16.50;84.80
27314;DHT22;14800;48.174;9.798;2023-08-06T01:55:57;16.50;84.60
27314;DHT22;14800;48.174;9.798;2023-08-06T01:58:23;16.50;84.70
27314;DHT22;14800;48.174;9.798;2023-08-06T02:00:49;16.50;84.80
27314;DHT22;14800;48.174;9.798;2023-08-06T02:03:14;16.40;84.80
27314;DHT22;14800;48.174;9.798;2023-08-06T02:05:40;16.50;84.90
27314;DHT22;14800;48.174;9.798;2023-08-06T02:08:06;16.40;84.90
27314;DHT22;14800;48.174;9.798;2023-08-06T02:10:32;16.40;85.00
27314;DHT22;14800;48.174;9.798;2023-08-06T02:12:57;16.40;85.00
27314;DHT22;14800;48.174;9.798;2023-08-06T02:15:23;16.40;85.00
27314;DHT22;14800;48.174;9.798;2023-08-06T02:17:49;16.40;85.00
27314;DHT22;14800;48.174;9.798;2023-08-06T02:20:14;16.40;85.10
27314;DHT22;14800;48.174;9.798;2023-08-06T02:22:40;16.40;85.10
27314;DHT22;14800;48.174;9.798;2023-08-06T02:25:05;16.40;85.20
27314;DHT22;14800;48.174;9.798;2023-08-06T02:27:31;16.40;85.20
27314;DHT22;14800;48.174;9.798;2023-08-06T02:29:57;16.40;85.20
27314;DHT22;14800;48.174;9.798;2023-08-06T02:32:22;16.50;85.20
27314;DHT22;14800;48.174;9.798;2023-08-06T02:34:48;16.40;85.20
27314;DHT22;14800;48.174;9.798;2023-08-06T02:37:13;16.40;85.20
27314;DHT22;14800;48.174;9.798;2023-08-06T02:39:39;16.40;85.00
27314;DHT22;14800;48.174;9.798;2023-08-06T02:42:08;16.40;85.10
27314;DHT22;14800;48.174;9.798;2023-08-06T02:44:34;16.40;85.30
27314;DHT22;14800;48.174;9.798;2023-08-06T02:47:00;16.30;85.20
27314;DHT22;14800;48.174;9.798;2023-08-06T02:49:26;16.30;85.10
27314;DHT22;14800;48.174;9.798;2023-08-06T02:51:51;16.30;85.00
27314;DHT22;14800;48.174;9.798;2023-08-06T02:54:18;16.30;84.90
27314;DHT22;14800;48.174;9.798;2023-08-06T02:56:44;16.30;84.60
27314;DHT22;14800;48.174;9.798;2023-08-06T02:59:10;16.30;84.50
27314;DHT22;14800;48.174;9.798;2023-08-06T03:01:36;16.20;84.20
27314;DHT22;14800;48.174;9.798;2023-08-06T03:04:02;16.20;84.00
27314;DHT22;14800;48.174;9.798;2023-08-06T03:06:28;16.20;83.80
27314;DHT22;14800;48.174;9.798;2023-08-06T03:08:53;16.20;83.60
27314;DHT22;14800;48.174;9.798;2023-08-06T03:11:19;16.20;83.40
27314;DHT22;14800;48.174;9.798;2023-08-06T03:13:45;16.20;83.30
27314;DHT22;14800;48.174;9.798;2023-08-06T03:16:10;16.20;83.20
27314;DHT22;14800;48.174;9.798;2023-08-06T03:18:36;16.20;83.10
27314;DHT22;14800;48.174;9.798;2023-08-06T03:21:01;16.20;82.90
27314;DHT22;14800;48.174;9.798;2023-08-06T03:23:27;16.20;82.90
27314;DHT22;14800;48.174;9.798;2023-08-06T03:25:52;16.10;82.80
27314;DHT22;14800;48.174;9.798;2023-08-06T03:28:18;16.10;82.80
27314;DHT22;14800;48.174;9.798;2023-08-06T03:30:44;16.10;82.70
27314;DHT22;14800;48.174;9.798;2023-08-06T03:33:09;16.10;82.80
27314;DHT22;14800;48.174;9.798;2023-08-06T03:35:35;16.10;82.90
27314;DHT22;14800;48.174;9.798;2023-08-06T03:38:00;16.00;82.80
27314;DHT22;14800;48.174;9.798;2023-08-06T03:40:26;16.00;83.00
27314;DHT22;14800;48.174;9.798;2023-08-06T03:42:52;16.00;83.10
27314;DHT22;14800;48.174;9.798;2023-08-06T03:45:17;15.90;83.20
27314;DHT22;14800;48.174;9.798;2023-08-06T03:47:43;15.90;83.30
27314;DHT22;14800;48.174;9.798;2023-08-06T03:50:09;15.90;83.30
27314;DHT22;14800;48.174;9.798;2023-08-06T03:52:34;15.90;83.40
27314;DHT22;14800;48.174;9.798;2023-08-06T03:55:00;15.90;83.50
27314;DHT22;14800;48.174;9.798;2023-08-06T03:57:25;15.90;83.60
27314;DHT22;14800;48.174;9.798;2023-08-06T03:59:51;15.90;83.60
27314;DHT22;14800;48.174;9.798;2023-08-06T04:02:16;15.90;83.70
27314;DHT22;14800;48.174;9.798;2023-08-06T04:04:42;15.90;83.80
27314;DHT22;14800;48.174;9.798;2023-08-06T04:07:07;15.90;83.90
27314;DHT22;14800;48.174;9.798;2023-08-06T04:09:33;15.90;84.00
27314;DHT22;14800;48.174;9.798;2023-08-06T04:11:59;15.90;84.10
27314;DHT22;14800;48.174;9.798;2023-08-06T04:14:27;15.90;84.20
27314;DHT22;14800;48.174;9.798;2023-08-06T04:16:53;15.90;84.40
27314;DHT22;14800;48.174;9.798;2023-08-06T04:19:18;15.90;84.50
27314;DHT22;14800;48.174;9.798;2023-08-06T04:21:44;15.90;84.60
27314;DHT22;14800;48.174;9.798;2023-08-06T04:24:09;15.90;84.70
27314;DHT22;14800;48.174;9.798;2023-08-06T04:26:35;15.90;84.80
27314;DHT22;14800;48.174;9.798;2023-08-06T04:29:01;15.90;84.90
27314;DHT22;14800;48.174;9.798;2023-08-06T04:31:26;15.90;85.10
27314;DHT22;14800;48.174;9.798;2023-08-06T04:33:52;15.90;85.70
27314;DHT22;14800;48.174;9.798;2023-08-06T04:36:17;16.00;85.30
27314;DHT22;14800;48.174;9.798;2023-08-06T04:38:43;16.00;85.40
27314;DHT22;14800;48.174;9.798;2023-08-06T04:41:11;16.00;85.50
27314;DHT22;14800;48.174;9.798;2023-08-06T04:43:36;16.00;85.40
27314;DHT22;14800;48.174;9.798;2023-08-06T04:46:02;16.00;85.50
27314;DHT22;14800;48.174;9.798;2023-08-06T04:48:28;16.10;85.50
27314;DHT22;14800;48.174;9.798;2023-08-06T04:50:53;16.10;85.60
27314;DHT22;14800;48.174;9.798;2023-08-06T04:53:19;16.10;85.70
27314;DHT22;14800;48.174;9.798;2023-08-06T04:55:45;16.10;85.80
27314;DHT22;14800;48.174;9.798;2023-08-06T04:58:13;16.10;85.80
27314;DHT22;14800;48.174;9.798;2023-08-06T05:00:38;16.10;85.90
27314;DHT22;14800;48.174;9.798;2023-08-06T05:03:05;16.20;86.00
27314;DHT22;14800;48.174;9.798;2023-08-06T05:05:30;16.10;86.00
27314;DHT22;14800;48.174;9.798;2023-08-06T05:07:57;16.20;86.00
27314;DHT22;14800;48.174;9.798;2023-08-06T05:10:25;16.20;86.10
27314;DHT22;14800;48.174;9.798;2023-08-06T05:12:51;16.20;86.20
27314;DHT22;14800;48.174;9.798;2023-08-06T05:15:16;16.20;86.00
27314;DHT22;14800;48.174;9.798;2023-08-06T05:17:42;16.20;86.10
27314;DHT22;14800;48.174;9.798;2023-08-06T05:20:08;16.20;86.00
27314;DHT22;14800;48.174;9.798;2023-08-06T05:22:34;16.20;86.00
27314;DHT22;14800;48.174;9.798;2023-08-06T05:24:59;16.20;86.10
27314;DHT22;14800;48.174;9.798;2023-08-06T05:27:25;16.20;86.20
27314;DHT22;14800;48.174;9.798;2023-08-06T05:29:55;16.20;86.10
27314;DHT22;14800;48.174;9.798;2023-08-06T05:32:22;16.20;86.40
27314;DHT22;14800;48.174;9.798;2023-08-06T05:34:47;16.10;86.90
27314;DHT22;14800;48.174;9.798;2023-08-06T05:37:13;16.10;86.20
27314;DHT22;14800;48.174;9.798;2023-08-06T05:39:38;16.10;86.10
27314;DHT22;14800;48.174;9.798;2023-08-06T05:42:05;16.10;86.40
27314;DHT22;14800;48.174;9.798;2023-08-06T05:44:30;16.10;86.40
27314;DHT22;14800;48.174;9.798;2023-08-06T05:46:56;16.10;86.50
27314;DHT22;14800;48.174;9.798;2023-08-06T05:49:21;16.10;87.20
27314;DHT22;14800;48.174;9.798;2023-08-06T05:51:47;16.10;86.40
27314;DHT22;14800;48.174;9.798;2023-08-06T05:54:13;16.00;86.40
27314;DHT22;14800;48.174;9.798;2023-08-06T05:56:39;16.00;86.50
27314;DHT22;14800;48.174;9.798;2023-08-06T05:59:04;16.00;86.60
27314;DHT22;14800;48.174;9.798;2023-08-06T06:01:30;16.00;86.60
27314;DHT22;14800;48.174;9.798;2023-08-06T06:03:56;16.00;86.70
27314;DHT22;14800;48.174;9.798;2023-08-06T06:06:21;16.00;86.90
27314;DHT22;14800;48.174;9.798;2023-08-06T06:08:47;16.10;87.10
27314;DHT22;14800;48.174;9.798;2023-08-06T06:11:13;16.10;88.00
27314;DHT22;14800;48.174;9.798;2023-08-06T06:13:38;16.10;87.10
27314;DHT22;14800;48.174;9.798;2023-08-06T06:16:04;16.10;87.10
27314;DHT22;14800;48.174;9.798;2023-08-06T06:18:30;16.20;88.00
27314;DHT22;14800;48.174;9.798;2023-08-06T06:20:56;16.20;87.00
27314;DHT22;14800;48.174;9.798;2023-08-06T06:23:21;16.20;86.80
27314;DHT22;14800;48.174;9.798;2023-08-06T06:25:48;16.30;86.90
27314;DHT22;14800;48.174;9.798;2023-08-06T06:28:14;16.30;86.60
27314;DHT22;14800;48.174;9.798;2023-08-06T06:30:41;16.30;86.50
27314;DHT22;14800;48.174;9.798;2023-08-06T06:33:07;16.30;86.50
27314;DHT22;14800;48.174;9.798;2023-08-06T06:35:33;16.40;86.50
27314;DHT22;14800;48.174;9.798;2023-08-06T06:37:59;16.40;86.50
27314;DHT22;14800;48.174;9.798;2023-08-06T06:40:25;16.40;86.40
27314;DHT22;14800;48.174;9.798;2023-08-06T06:42:51;16.50;86.20
27314;DHT22;14800;48.174;9.798;2023-08-06T06:45:17;16.50;85.90
27314;DHT22;14800;48.174;9.798;2023-08-06T06:47:42;16.60;85.50
27314;DHT22;14800;48.174;9.798;2023-08-06T06:50:09;16.60;85.60
27314;DHT22;14800;48.174;9.798;2023-08-06T06:52:34;16.70;85.70
27314;DHT22;14800;48.174;9.798;2023-08-06T06:55:00;16.70;85.90
27314;DHT22;14800;48.174;9.798;2023-08-06T06:57:26;16.80;85.50
27314;DHT22;14800;48.174;9.798;2023-08-06T06:59:51;16.90;85.10
27314;DHT22;14800;48.174;9.798;2023-08-06T07:02:17;16.90;84.50
27314;DHT22;14800;48.174;9.798;2023-08-06T07:04:42;17.00;84.40
27314;DHT22;14800;48.174;9.798;2023-08-06T07:07:08;17.00;84.00
27314;DHT22;14800;48.174;9.798;2023-08-06T07:09:33;17.10;83.90
27314;DHT22;14800;48.174;9.798;2023-08-06T07:11:59;17.20;83.70
27314;DHT22;14800;48.174;9.798;2023-08-06T07:14:25;17.20;83.40
27314;DHT22;14800;48.174;9.798;2023-08-06T07:16:51;17.20;82.80
27314;DHT22;14800;48.174;9.798;2023-08-06T07:19:16;17.30;83.10
27314;DHT22;14800;48.174;9.798;2023-08-06T07:21:42;17.30;83.00
27314;DHT22;14800;48.174;9.798;2023-08-06T07:24:08;17.40;82.70
27314;DHT22;14800;48.174;9.798;2023-08-06T07:26:33;17.40;82.20
27314;DHT22;14800;48.174;9.798;2023-08-06T07:28:59;17.40;81.50
27314;DHT22;14800;48.174;9.798;2023-08-06T07:31:24;17.40;81.90
27314;DHT22;14800;48.174;9.798;2023-08-06T07:33:51;17.40;80.40
27314;DHT22;14800;48.174;9.798;2023-08-06T07:36:16;17.30;80.40
27314;DHT22;14800;48.174;9.798;2023-08-06T07:38:42;17.30;80.00
27314;DHT22;14800;48.174;9.798;2023-08-06T07:41:08;17.30;80.10
27314;DHT22;14800;48.174;9.798;2023-08-06T07:43:34;17.30;79.70
27314;DHT22;14800;48.174;9.798;2023-08-06T07:46:01;17.30;79.80
27314;DHT22;14800;48.174;9.798;2023-08-06T07:48:27;17.30;79.70
27314;DHT22;14800;48.174;9.798;2023-08-06T07:50:56;17.30;79.90
27314;DHT22;14800;48.174;9.798;2023-08-06T07:53:23;17.20;79.80
27314;DHT22;14800;48.174;9.798;2023-08-06T07:55:50;17.20;79.70
27314;DHT22;14800;48.174;9.798;2023-08-06T07:58:16;17.20;79.30
27314;DHT22;14800;48.174;9.798;2023-08-06T08:00:42;17.20;79.60
27314;DHT22;14800;48.174;9.798;2023-08-06T08:03:11;17.20;79.30
27314;DHT22;14800;48.174;9.798;2023-08-06T08:05:37;17.10;79.90
27314;DHT22;14800;48.174;9.798;2023-08-06T08:08:03;17.10;79.50
27314;DHT22;14800;48.174;9.798;2023-08-06T08:10:29;17.10;79.80
27314;DHT22;14800;48.174;9.798;2023-08-06T08:12:54;17.10;79.80
27314;DHT22;14800;48.174;9.798;2023-08-06T08:15:20;17.10;79.90
27314;DHT22;14800;48.174;9.798;2023-08-06T08:17:45;17.10;79.80
27314;DHT22;14800;48.174;9.798;2023-08-06T08:20:13;17.10;79.90
27314;DHT22;14800;48.174;9.798;2023-08-06T08:22:39;17.20;79.50
27314;DHT22;14800;48.174;9.798;2023-08-06T08:25:05;17.30;79.30
27314;DHT22;14800;48.174;9.798;2023-08-06T08:27:30;17.30;79.30
27314;DHT22;14800;48.174;9.798;2023-08-06T08:29:56;17.30;79.70
27314;DHT22;14800;48.174;9.798;2023-08-06T08:32:21;17.30;79.30
27314;DHT22;14800;48.174;9.798;2023-08-06T08:34:47;17.30;79.40
27314;DHT22;14800;48.174;9.798;2023-08-06T08:37:13;17.30;79.60
27314;DHT22;14800;48.174;9.798;2023-08-06T08:39:39;17.30;79.70
27314;DHT22;14800;48.174;9.798;2023-08-06T08:42:06;17.30;79.80
27314;DHT22;14800;48.174;9.798;2023-08-06T08:44:32;17.30;79.60
27314;DHT22;14800;48.174;9.798;2023-08-06T08:46:59;17.30;80.00
27314;DHT22;14800;48.174;9.798;2023-08-06T08:49:26;17.20;80.00
27314;DHT22;14800;48.174;9.798;2023-08-06T08:51:53;17.30;79.80
27314;DHT22;14800;48.174;9.798;2023-08-06T08:54:20;17.20;79.70
27314;DHT22;14800;48.174;9.798;2023-08-06T08:56:47;17.30;80.10
27314;DHT22;14800;48.174;9.798;2023-08-06T08:59:13;17.30;80.10
27314;DHT22;14800;48.174;9.798;2023-08-06T09:01:40;17.30;80.10
27314;DHT22;14800;48.174;9.798;2023-08-06T09:04:07;17.30;79.90
27314;DHT22;14800;48.174;9.798;2023-08-06T09:06:37;17.20;80.30
27314;DHT22;14800;48.174;9.798;2023-08-06T09:09:08;17.20;80.60
27314;DHT22;14800;48.174;9.798;2023-08-06T09:11:43;17.20;80.80
27314;DHT22;14800;48.174;9.798;2023-08-06T09:14:09;17.10;80.90
27314;DHT22;14800;48.174;9.798;2023-08-06T09:16:35;17.10;80.30
27314;DHT22;14800;48.174;9.798;2023-08-06T09:19:10;17.00;80.60
27314;DHT22;14800;48.174;9.798;2023-08-06T09:21:40;17.00;81.00
27314;DHT22;14800;48.174;9.798;2023-08-06T09:24:10;16.90;81.00
27314;DHT22;14800;48.174;9.798;2023-08-06T09:26:40;16.80;81.20
27314;DHT22;14800;48.174;9.798;2023-08-06T09:29:07;16.80;81.20
27314;DHT22;14800;48.174;9.798;2023-08-06T09:34:21;16.70;82.40
27314;DHT22;14800;48.174;9.798;2023-08-06T09:36:56;16.60;82.10
27314;DHT22;14800;48.174;9.798;2023-08-06T09:39:31;16.50;82.70
27314;DHT22;14800;48.174;9.798;2023-08-06T09:42:01;16.50;82.90
27314;DHT22;14800;48.174;9.798;2023-08-06T09:44:28;16.40;83.10
27314;DHT22;14800;48.174;9.798;2023-08-06T09:47:00;16.40;83.20
27314;DHT22;14800;48.174;9.798;2023-08-06T09:49:41;16.50;83.60
27314;DHT22;14800;48.174;9.798;2023-08-06T09:52:12;16.40;84.30
27314;DHT22;14800;48.174;9.798;2023-08-06T09:54:38;16.50;84.00
27314;DHT22;14800;48.174;9.798;2023-08-06T09:57:04;16.50;84.10
27314;DHT22;14800;48.174;9.798;2023-08-06T09:59:31;16.50;84.10
27314;DHT22;14800;48.174;9.798;2023-08-06T10:01:57;16.60;84.60
27314;DHT22;14800;48.174;9.798;2023-08-06T10:04:23;16.50;84.30
27314;DHT22;14800;48.174;9.798;2023-08-06T10:06:49;16.60;84.80
27314;DHT22;14800;48.174;9.798;2023-08-06T10:09:15;16.60;85.00
27314;DHT22;14800;48.174;9.798;2023-08-06T10:11:42;16.60;84.70
27314;DHT22;14800;48.174;9.798;2023-08-06T10:14:13;16.60;84.80
27314;DHT22;14800;48.174;9.798;2023-08-06T10:16:41;16.60;84.90
27314;DHT22;14800;48.174;9.798;2023-08-06T10:19:09;16.60;84.80
27314;DHT22;14800;48.174;9.798;2023-08-06T10:21:37;16.60;85.20
27314;DHT22;14800;48.174;9.798;2023-08-06T10:24:07;16.60;85.00
27314;DHT22;14800;48.174;9.798;2023-08-06T10:26:36;16.70;85.50
27314;DHT22;14800;48.174;9.798;2023-08-06T10:29:01;16.70;85.20
27314;DHT22;14800;48.174;9.798;2023-08-06T10:31:55;16.70;84.80
27314;DHT22;14800;48.174;9.798;2023-08-06T10:34:23;16.70;85.30
27314;DHT22;14800;48.174;9.798;2023-08-06T10:36:49;16.70;85.00
27314;DHT22;14800;48.174;9.798;2023-08-06T10:39:15;16.70;85.20
27314;DHT22;14800;48.174;9.798;2023-08-06T10:41:42;16.80;85.30
27314;DHT22;14800;48.174;9.798;2023-08-06T10:44:10;16.80;85.30
27314;DHT22;14800;48.174;9.798;2023-08-06T10:46:36;16.90;85.20
27314;DHT22;14800;48.174;9.798;2023-08-06T10:49:03;17.00;85.00
27314;DHT22;14800;48.174;9.798;2023-08-06T10:51:30;17.10;86.00
27314;DHT22;14800;48.174;9.798;2023-08-06T10:53:56;17.10;85.20
27314;DHT22;14800;48.174;9.798;2023-08-06T10:56:25;17.10;84.80
27314;DHT22;14800;48.174;9.798;2023-08-06T10:58:53;17.10;85.00
27314;DHT22;14800;48.174;9.798;2023-08-06T11:01:19;17.20;85.00
27314;DHT22;14800;48.174;9.798;2023-08-06T11:03:47;17.10;85.20
27314;DHT22;14800;48.174;9.798;2023-08-06T11:06:21;17.20;85.00
27314;DHT22;14800;48.174;9.798;2023-08-06T11:08:52;17.20;84.70
27314;DHT22;14800;48.174;9.798;2023-08-06T11:11:19;17.10;84.30
27314;DHT22;14800;48.174;9.798;2023-08-06T11:13:46;17.10;84.10
27314;DHT22;14800;48.174;9.798;2023-08-06T11:16:24;17.10;84.20
27314;DHT22;14800;48.174;9.798;2023-08-06T11:18:50;17.00;84.90
27314;DHT22;14800;48.174;9.798;2023-08-06T11:21:19;17.00;84.80
27314;DHT22;14800;48.174;9.798;2023-08-06T11:23:45;16.90;84.90
27314;DHT22;14800;48.174;9.798;2023-08-06T11:26:11;16.90;85.00
27314;DHT22;14800;48.174;9.798;2023-08-06T11:28:36;16.80;85.10
27314;DHT22;14800;48.174;9.798;2023-08-06T11:31:02;16.80;85.00
27314;DHT22;14800;48.174;9.798;2023-08-06T11:33:29;16.70;85.10
27314;DHT22;14800;48.174;9.798;2023-08-06T11:35:56;16.70;85.40
27314;DHT22;14800;48.174;9.798;2023-08-06T11:38:24;16.70;85.70
27314;DHT22;14800;48.174;9.798;2023-08-06T11:40:50;16.60;85.70
27314;DHT22;14800;48.174;9.798;2023-08-06T11:43:20;16.60;85.70
27314;DHT22;14800;48.174;9.798;2023-08-06T11:45:48;16.60;85.70
27314;DHT22;14800;48.174;9.798;2023-08-06T11:48:14;16.60;85.70
27314;DHT22;14800;48.174;9.798;2023-08-06T11:50:40;16.50;85.80
27314;DHT22;14800;48.174;9.798;2023-08-06T11:53:07;16.50;86.00
27314;DHT22;14800;48.174;9.798;2023-08-06T11:55:32;16.40;86.10
27314;DHT22;14800;48.174;9.798;2023-08-06T11:58:02;16.40;86.30
27314;DHT22;14800;48.174;9.798;2023-08-06T12:00:29;16.50;86.60
27314;DHT22;14800;48.174;9.798;2023-08-06T12:02:54;16.50;87.00
27314;DHT22;14800;48.174;9.798;2023-08-06T12:05:22;16.40;87.10
27314;DHT22;14800;48.174;9.798;2023-08-06T12:07:54;16.40;87.40
27314;DHT22;14800;48.174;9.798;2023-08-06T12:10:21;16.50;87.40
27314;DHT22;14800;48.174;9.798;2023-08-06T12:12:47;16.50;87.50
27314;DHT22;14800;48.174;9.798;2023-08-06T12:15:13;16.50;87.60
27314;DHT22;14800;48.174;9.798;2023-08-06T12:17:39;16.60;87.60
27314;DHT22;14800;48.174;9.798;2023-08-06T12:20:06;16.60;87.60
27314;DHT22;14800;48.174;9.798;2023-08-06T12:22:33;16.60;87.60
27314;DHT22;14800;48.174;9.798;2023-08-06T12:25:03;16.60;87.60
27314;DHT22;14800;48.174;9.798;2023-08-06T12:27:36;16.60;87.50
27314;DHT22;14800;48.174;9.798;2023-08-06T12:30:03;16.60;87.20
27314;DHT22;14800;48.174;9.798;2023-08-06T12:32:29;16.70;87.00
27314;DHT22;14800;48.174;9.798;2023-08-06T12:34:55;16.70;87.10
27314;DHT22;14800;48.174;9.798;2023-08-06T12:37:20;16.70;87.30
27314;DHT22;14800;48.174;9.798;2023-08-06T12:39:46;16.70;87.30
27314;DHT22;14800;48.174;9.798;2023-08-06T12:42:12;16.70;87.30
27314;DHT22;14800;48.174;9.798;2023-08-06T12:44:37;16.70;87.50
27314;DHT22;14800;48.174;9.798;2023-08-06T12:47:03;16.70;87.40
27314;DHT22;14800;48.174;9.798;2023-08-06T12:49:29;16.70;87.10
27314;DHT22;14800;48.174;9.798;2023-08-06T12:51:56;16.70;87.20
27314;DHT22;14800;48.174;9.798;2023-08-06T12:54:22;16.70;87.40
27314;DHT22;14800;48.174;9.798;2023-08-06T12:56:48;16.70;87.40
27314;DHT22;14800;48.174;9.798;2023-08-06T12:59:15;16.70;87.40
27314;DHT22;14800;48.174;9.798;2023-08-06T13:01:41;16.80;87.30
27314;DHT22;14800;48.174;9.798;2023-08-06T13:04:07;16.80;86.90
27314;DHT22;14800;48.174;9.798;2023-08-06T13:06:33;16.70;86.80
27314;DHT22;14800;48.174;9.798;2023-08-06T13:09:05;16.70;86.90
27314;DHT22;14800;48.174;9.798;2023-08-06T13:11:32;16.70;87.10
27314;DHT22;14800;48.174;9.798;2023-08-06T13:14:04;16.70;87.40
27314;DHT22;14800;48.174;9.798;2023-08-06T13:16:30;16.70;88.10
27314;DHT22;14800;48.174;9.798;2023-08-06T13:18:56;16.80;88.10
27314;DHT22;14800;48.174;9.798;2023-08-06T13:21:21;16.70;88.20
27314;DHT22;14800;48.174;9.798;2023-08-06T13:23:47;16.80;86.70
27314;DHT22;14800;48.174;9.798;2023-08-06T13:26:13;16.80;85.50
27314;DHT22;14800;48.174;9.798;2023-08-06T13:28:39;16.80;84.00
27314;DHT22;14800;48.174;9.798;2023-08-06T13:31:04;16.90;83.00
27314;DHT22;14800;48.174;9.798;2023-08-06T13:33:30;16.90;82.60
27314;DHT22;14800;48.174;9.798;2023-08-06T13:35:55;16.90;83.60
27314;DHT22;14800;48.174;9.798;2023-08-06T13:38:21;16.90;85.20
27314;DHT22;14800;48.174;9.798;2023-08-06T13:40:47;17.00;85.80
27314;DHT22;14800;48.174;9.798;2023-08-06T13:43:13;17.10;84.10
27314;DHT22;14800;48.174;9.798;2023-08-06T13:45:41;17.10;83.80
27314;DHT22;14800;48.174;9.798;2023-08-06T13:48:06;17.20;82.90
27314;DHT22;14800;48.174;9.798;2023-08-06T13:50:32;17.30;82.20
27314;DHT22;14800;48.174;9.798;2023-08-06T13:52:57;17.30;81.30
27314;DHT22;14800;48.174;9.798;2023-08-06T13:55:23;17.30;80.60
27314;DHT22;14800;48.174;9.798;2023-08-06T13:57:48;17.40;80.20
27314;DHT22;14800;48.174;9.798;2023-08-06T14:00:14;17.40;78.40
27314;DHT22;14800;48.174;9.798;2023-08-06T14:02:41;17.50;78.60
27314;DHT22;14800;48.174;9.798;2023-08-06T14:05:09;17.50;79.20
27314;DHT22;14800;48.174;9.798;2023-08-06T14:07:34;17.50;78.70
27314;DHT22;14800;48.174;9.798;2023-08-06T14:10:00;17.60;78.40
27314;DHT22;14800;48.174;9.798;2023-08-06T14:12:25;17.60;78.50
27314;DHT22;14800;48.174;9.798;2023-08-06T14:14:51;17.70;77.30
27314;DHT22;14800;48.174;9.798;2023-08-06T14:17:16;17.70;77.70
27314;DHT22;14800;48.174;9.798;2023-08-06T14:19:42;17.80;77.30
27314;DHT22;14800;48.174;9.798;2023-08-06T14:22:07;17.80;76.60
27314;DHT22;14800;48.174;9.798;2023-08-06T14:24:33;17.90;75.30
27314;DHT22;14800;48.174;9.798;2023-08-06T14:26:59;17.90;75.30
27314;DHT22;14800;48.174;9.798;2023-08-06T14:29:24;18.00;74.90
27314;DHT22;14800;48.174;9.798;2023-08-06T14:31:50;18.00;73.20
27314;DHT22;14800;48.174;9.798;2023-08-06T14:34:16;18.00;74.30
27314;DHT22;14800;48.174;9.798;2023-08-06T14:36:42;18.10;75.50
27314;DHT22;14800;48.174;9.798;2023-08-06T14:39:08;18.20;75.40
27314;DHT22;14800;48.174;9.798;2023-08-06T14:41:33;18.20;73.90
27314;DHT22;14800;48.174;9.798;2023-08-06T14:43:59;18.20;72.50
27314;DHT22;14800;48.174;9.798;2023-08-06T14:46:25;18.30;72.40
27314;DHT22;14800;48.174;9.798;2023-08-06T14:48:50;18.20;72.60
27314;DHT22;14800;48.174;9.798;2023-08-06T14:51:16;18.30;70.70
27314;DHT22;14800;48.174;9.798;2023-08-06T14:53:44;18.20;71.30
27314;DHT22;14800;48.174;9.798;2023-08-06T14:56:10;18.30;72.10
27314;DHT22;14800;48.174;9.798;2023-08-06T14:58:35;18.20;72.60
27314;DHT22;14800;48.174;9.798;2023-08-06T15:01:01;18.30;72.60
27314;DHT22;14800;48.174;9.798;2023-08-06T15:03:27;18.30;73.10
27314;DHT22;14800;48.174;9.798;2023-08-06T15:05:53;18.30;72.60
27314;DHT22;14800;48.174;9.798;2023-08-06T15:08:19;18.20;72.00
27314;DHT22;14800;48.174;9.798;2023-08-06T15:10:53;18.20;71.60
27314;DHT22;14800;48.174;9.798;2023-08-06T15:13:19;18.20;71.70
27314;DHT22;14800;48.174;9.798;2023-08-06T15:15:49;18.10;71.80
27314;DHT22;14800;48.174;9.798;2023-08-06T15:18:15;18.10;71.60
27314;DHT22;14800;48.174;9.798;2023-08-06T15:20:40;18.00;71.40
27314;DHT22;14800;48.174;9.798;2023-08-06T15:23:06;18.00;72.60
27314;DHT22;14800;48.174;9.798;2023-08-06T15:25:32;18.00;72.50
27314;DHT22;14800;48.174;9.798;2023-08-06T15:27:57;17.90;73.00
27314;DHT22;14800;48.174;9.798;2023-08-06T15:30:23;17.90;72.30
27314;DHT22;14800;48.174;9.798;2023-08-06T15:32:48;17.90;72.30
27314;DHT22;14800;48.174;9.798;2023-08-06T15:35:14;18.00;72.50